Impacts METAR Board INFO
IDs:

KEWR - Newark Intl, NJ, US

Updated at: 0347 UTC 22 Nov 2017
Potential Impact None Slight Moderate High
Time21/15Z 21/16Z 21/17Z 21/18Z 21/19Z 21/20Z 21/21Z 21/22Z 21/23Z 22/00Z 22/01Z 22/02Z 22/03Z
VIS10 10 10 10 10 10 10 10 10 10 10 10 10
CIG-- 250 250 250 250 250 250 250 250 250 250 250 250
CoverSCTBKNBKNBKNBKNBKNBKNBKNBKNBKNBKNBKNBKN
FltCatVFRVFRVFRVFRVFRVFRVFRVFRVFRVFRVFRVFRVFR
WX--------------------------
WDir2202302302202102002002000170180170160
WSpd13 17 15 15 13 15 14 6 0 5 7 4 5
WGst24 24 23 21 -- 18 21 -- -- -- -- -- --
Raw hourly METARs
KEWR 211451Z 22013G24KT 10SM SCT250 11/00 A3012 RMK AO2 SLP200 T01110000 58003 $
KEWR 211551Z 23017G24KT 10SM BKN250 12/M01 A3011 RMK AO2 PK WND 23028/1520 SLP195 T01221011 $
KEWR 211651Z 23015G23KT 10SM BKN250 13/00 A3008 RMK AO2 SLP186 T01330000 $
KEWR 211751Z 22015G21KT 10SM BKN250 14/M01 A3005 RMK AO2 SLP175 T01441011 10150 20022 58025 $
KEWR 211851Z 21013KT 10SM BKN250 16/M01 A3003 RMK AO2 SLP170 T01561011
KEWR 211951Z 20015G18KT 10SM FEW220 BKN250 14/M02 A3001 RMK AO2 SLP163 T01441017
KEWR 212051Z 20014G21KT 10SM FEW220 BKN250 13/M02 A3002 RMK AO2 SLP166 T01331022 55009
KEWR 212151Z 20006KT 10SM BKN250 11/M02 A3002 RMK AO2 SLP163 T01111017
KEWR 212251Z 00000KT 10SM BKN250 12/M01 A3003 RMK AO2 SLP168 T01171011
KEWR 212351Z 17005KT 10SM BKN250 11/01 A3005 RMK AO2 SLP174 T01110006 10156 20111 53008
KEWR 220051Z 18007KT 10SM FEW180 BKN250 11/02 A3005 RMK AO2 SLP174 T01110022
KEWR 220151Z COR 17004KT 10SM FEW180 BKN250 11/03 A3005 RMK AO2 SLP174 T01060028 $
KEWR 220251Z 16005KT 10SM FEW180 BKN250 10/04 A3005 RMK AO2 SLP174 T01000039 58000 $